^^
Station Historical Data
Daily Summary for March 15, 2019 Units:  Metric    English   Both
« Previous Day
Next Day »
Daily Weekly Monthly Yearly Custom
  High: Low: Average:
Temperature: 0.5 °C -8.8 °C -3.8 °C
Dew Point: -2.8 °C -10.3 °C -5.9 °C
Humidity: 91% 76% 85%
Wind Speed: 24.1km/h 0km/h 10.3km/h
Wind Gust: 32.2km/h - -
Wind- - WSW
Pressure: 1024.3 hPa 1019.5 hPa -
Precipitation: 0 mm    
Historical Graphs
 
 
Tabular Data for March 15, 2019
Time Temperature Dew Point Pressure Wind Wind Speed Wind Gust Humidity Rainfall Rate (Hourly) solar Conditions
00:04 -4.8 °C -7.1 °C 1019.9 hPa West 8 km/h 14.5 km/h 84% 0 mm 0.00 W/m2
00:09 -5.2 °C -7.4 °C 1019.9 hPa WNW 9.7 km/h 14.5 km/h 84% 0 mm 0.00 W/m2
00:14 -5.4 °C -7.7 °C 1019.9 hPa West 8 km/h 11.3 km/h 84% 0 mm 0.00 W/m2
00:19 -5.7 °C -7.9 °C 1019.9 hPa West 6.4 km/h 9.7 km/h 84% 0 mm 0.00 W/m2
00:24 -5.9 °C -8 °C 1019.9 hPa WNW 6.4 km/h 9.7 km/h 85% 0 mm 0.00 W/m2
00:29 -6 °C -8.1 °C 1019.9 hPa West 8 km/h 12.9 km/h 85% 0 mm 0.00 W/m2
00:34 -5.9 °C -7.9 °C 1019.9 hPa West 6.4 km/h 12.9 km/h 86% 0 mm 0.00 W/m2
00:39 -6 °C -8.1 °C 1019.9 hPa WNW 9.7 km/h 11.3 km/h 85% 0 mm 0.00 W/m2
00:44 -6.1 °C -8.2 °C 1019.9 hPa West 9.7 km/h 12.9 km/h 85% 0 mm 0.00 W/m2
00:49 -6.2 °C -8.3 °C 1019.9 hPa West 8 km/h 12.9 km/h 85% 0 mm 0.00 W/m2
00:54 -6 °C -7.9 °C 1019.9 hPa West 9.7 km/h 12.9 km/h 86% 0 mm 0.00 W/m2
00:59 -5.6 °C -7.5 °C 1019.9 hPa WNW 12.9 km/h 17.7 km/h 86% 0 mm 0.00 W/m2
01:04 -5.3 °C -7.4 °C 1019.5 hPa WNW 14.5 km/h 19.3 km/h 85% 0 mm 0.00 W/m2
01:09 -5.1 °C -7.2 °C 1019.5 hPa West 14.5 km/h 19.3 km/h 85% 0 mm 0.00 W/m2
01:14 -5.1 °C -7.2 °C 1019.5 hPa West 12.9 km/h 20.9 km/h 85% 0 mm 0.00 W/m2
01:19 -5.4 °C -7.7 °C 1019.9 hPa West 16.1 km/h 20.9 km/h 84% 0 mm 0.00 W/m2
01:24 -5.7 °C -7.8 °C 1019.5 hPa West 16.1 km/h 17.7 km/h 85% 0 mm 0.00 W/m2
01:29 -5.7 °C -7.6 °C 1019.5 hPa WNW 12.9 km/h 19.3 km/h 86% 0 mm 0.00 W/m2
01:34 -5.8 °C -7.7 °C 1019.5 hPa WNW 14.5 km/h 19.3 km/h 86% 0 mm 0.00 W/m2
01:39 -5.7 °C -7.6 °C 1019.5 hPa WNW 17.7 km/h 20.9 km/h 86% 0 mm 0.00 W/m2
01:44 -5.4 °C -7.4 °C 1019.5 hPa West 12.9 km/h 20.9 km/h 86% 0 mm 0.00 W/m2
01:49 -5.6 °C -7.6 °C 1019.5 hPa West 16.1 km/h 20.9 km/h 86% 0 mm 0.00 W/m2
01:54 -5.7 °C -7.5 °C 1019.5 hPa WNW 12.9 km/h 19.3 km/h 87% 0 mm 0.00 W/m2
01:59 -5.7 °C -7.7 °C 1019.5 hPa WNW 14.5 km/h 19.3 km/h 86% 0 mm 0.00 W/m2
02:04 -5.6 °C -7.4 °C 1019.5 hPa West 12.9 km/h 20.9 km/h 87% 0 mm 0.00 W/m2
02:09 -5.6 °C -7.4 °C 1019.5 hPa West 20.9 km/h 20.9 km/h 87% 0 mm 0.00 W/m2
02:14 -5.6 °C -7.4 °C 1019.9 hPa West 14.5 km/h 22.5 km/h 87% 0 mm 0.00 W/m2
02:19 -5.6 °C -7.4 °C 1019.9 hPa West 22.5 km/h 24.1 km/h 87% 0 mm 0.00 W/m2
02:24 -5.6 °C -7.4 °C 1019.9 hPa West 14.5 km/h 24.1 km/h 87% 0 mm 0.00 W/m2
02:29 -5.6 °C -7.4 °C 1019.9 hPa West 14.5 km/h 22.5 km/h 87% 0 mm 0.00 W/m2
02:34 -5.5 °C -7.3 °C 1019.9 hPa West 14.5 km/h 20.9 km/h 87% 0 mm 0.00 W/m2
02:39 -5.1 °C -6.7 °C 1019.9 hPa WNW 22.5 km/h 25.7 km/h 88% 0 mm 0.00 W/m2
02:44 -4.4 °C -6.1 °C 1019.9 hPa West 19.3 km/h 29 km/h 88% 0 mm 0.00 W/m2
02:49 -4.1 °C -5.7 °C 1019.9 hPa West 22.5 km/h 32.2 km/h 88% 0 mm 0.00 W/m2
02:54 -3.9 °C -5.8 °C 1019.9 hPa WNW 22.5 km/h 32.2 km/h 87% 0 mm 0.00 W/m2
02:59 -3.9 °C -5.8 °C 1020.2 hPa WNW 20.9 km/h 29 km/h 87% 0 mm 0.00 W/m2
03:04 -4.1 °C -5.9 °C 1020.2 hPa WNW 19.3 km/h 27.4 km/h 87% 0 mm 0.00 W/m2
03:09 -4.2 °C -6.1 °C 1020.2 hPa WNW 12.9 km/h 27.4 km/h 87% 0 mm 0.00 W/m2
03:14 -4.5 °C -6.3 °C 1020.2 hPa NW 11.3 km/h 27.4 km/h 87% 0 mm 0.00 W/m2
03:19 -4.7 °C -6.5 °C 1020.2 hPa WNW 20.9 km/h 24.1 km/h 87% 0 mm 0.00 W/m2
03:24 -4.7 °C -6.3 °C 1020.5 hPa West 16.1 km/h 30.6 km/h 88% 0 mm 0.00 W/m2
03:29 -4.7 °C -6.4 °C 1020.2 hPa WNW 19.3 km/h 30.6 km/h 88% 0 mm 0.00 W/m2
03:34 -4.7 °C -6.3 °C 1020.2 hPa WNW 22.5 km/h 30.6 km/h 88% 0 mm 0.00 W/m2
03:39 -4.7 °C -6.3 °C 1020.2 hPa WNW 19.3 km/h 30.6 km/h 88% 0 mm 0.00 W/m2
03:44 -4.6 °C -6.3 °C 1020.2 hPa WNW 20.9 km/h 30.6 km/h 88% 0 mm 0.00 W/m2
03:49 -4.6 °C -6.3 °C 1020.2 hPa WNW 12.9 km/h 30.6 km/h 88% 0 mm 0.00 W/m2
03:54 -4.7 °C -6.3 °C 1020.5 hPa NW 16.1 km/h 25.7 km/h 88% 0 mm 0.00 W/m2
03:59 -4.7 °C -6.4 °C 1020.5 hPa WNW 19.3 km/h 25.7 km/h 88% 0 mm 0.00 W/m2
04:04 -4.9 °C -6.6 °C 1020.5 hPa WNW 19.3 km/h 27.4 km/h 88% 0 mm 0.00 W/m2
04:09 -5 °C -6.7 °C 1020.5 hPa WNW 14.5 km/h 27.4 km/h 88% 0 mm 0.00 W/m2
04:14 -5 °C -6.7 °C 1020.5 hPa WNW 12.9 km/h 27.4 km/h 88% 0 mm 0.00 W/m2
04:19 -5.1 °C -6.8 °C 1020.5 hPa WNW 17.7 km/h 25.7 km/h 88% 0 mm 0.00 W/m2
04:24 -5.3 °C -6.9 °C 1020.5 hPa WNW 17.7 km/h 25.7 km/h 88% 0 mm 0.00 W/m2
04:29 -5.4 °C -7.1 °C 1020.9 hPa NW 16.1 km/h 25.7 km/h 88% 0 mm 0.00 W/m2
04:34 -5.4 °C -6.9 °C 1020.9 hPa WNW 19.3 km/h 25.7 km/h 89% 0 mm 0.00 W/m2
04:39 -5.5 °C -7 °C 1020.9 hPa WNW 12.9 km/h 24.1 km/h 89% 0 mm 0.00 W/m2
04:44 -5.4 °C -6.9 °C 1020.9 hPa WNW 20.9 km/h 24.1 km/h 89% 0 mm 0.00 W/m2
04:49 -5.4 °C -6.9 °C 1020.9 hPa WNW 20.9 km/h 27.4 km/h 89% 0 mm 0.00 W/m2
04:54 -5.4 °C -6.9 °C 1020.9 hPa WNW 17.7 km/h 27.4 km/h 89% 0 mm 0.00 W/m2
04:59 -5.5 °C -7 °C 1020.9 hPa WNW 11.3 km/h 22.5 km/h 89% 0 mm 0.00 W/m2
05:04 -5.6 °C -7.1 °C 1020.9 hPa West 12.9 km/h 22.5 km/h 89% 0 mm 0.00 W/m2
05:09 -5.7 °C -7.4 °C 1021.2 hPa WNW 12.9 km/h 19.3 km/h 88% 0 mm 0.00 W/m2
05:14 -5.9 °C -7.4 °C 1021.2 hPa WNW 11.3 km/h 19.3 km/h 89% 0 mm 0.00 W/m2
05:19 -5.9 °C -7.4 °C 1021.2 hPa WNW 9.7 km/h 19.3 km/h 89% 0 mm 0.00 W/m2
05:24 -5.9 °C -7.4 °C 1021.2 hPa WNW 11.3 km/h 19.3 km/h 89% 0 mm 0.00 W/m2
05:29 -5.9 °C -7.4 °C 1021.2 hPa WNW 14.5 km/h 17.7 km/h 89% 0 mm 0.00 W/m2
05:34 -5.9 °C -7.4 °C 1021.2 hPa WNW 11.3 km/h 17.7 km/h 89% 0 mm 0.00 W/m2
05:39 -6.1 °C -7.6 °C 1021.2 hPa WNW 11.3 km/h 17.7 km/h 89% 0 mm 0.00 W/m2
05:44 -6.1 °C -7.6 °C 1021.2 hPa WNW 14.5 km/h 16.1 km/h 89% 0 mm 0.00 W/m2
05:49 -6.3 °C -7.8 °C 1021.2 hPa WNW 11.3 km/h 19.3 km/h 89% 0 mm 0.00 W/m2
05:54 -6.3 °C -7.8 °C 1021.2 hPa WNW 11.3 km/h 19.3 km/h 89% 0 mm 0.00 W/m2
05:59 -6.3 °C -7.8 °C 1021.6 hPa NW 8 km/h 16.1 km/h 89% 0 mm 0.00 W/m2
06:04 -6.4 °C -7.9 °C 1021.6 hPa WNW 9.7 km/h 14.5 km/h 89% 0 mm 0.00 W/m2
06:09 -6.6 °C -8.1 °C 1021.6 hPa WNW 12.9 km/h 14.5 km/h 89% 0 mm 0.00 W/m2
06:14 -6.6 °C -8.1 °C 1021.6 hPa West 8 km/h 14.5 km/h 89% 0 mm 0.00 W/m2
06:19 -6.7 °C -8.2 °C 1021.6 hPa West 9.7 km/h 14.5 km/h 89% 0 mm 0.00 W/m2
06:24 -6.7 °C -8.2 °C 1021.6 hPa WNW 6.4 km/h 14.5 km/h 89% 0 mm 0.00 W/m2
06:29 -6.7 °C -8.2 °C 1021.6 hPa WNW 8 km/h 12.9 km/h 89% 0 mm 0.00 W/m2
06:34 -6.6 °C -8 °C 1021.6 hPa WNW 11.3 km/h 16.1 km/h 90% 0 mm 0.00 W/m2
06:39 -6.4 °C -7.8 °C 1021.6 hPa WNW 12.9 km/h 17.7 km/h 90% 0 mm 0.00 W/m2
06:44 -6.6 °C -8.1 °C 1021.6 hPa NW 17.7 km/h 17.7 km/h 89% 0 mm 0.00 W/m2
06:49 -6.6 °C -8.1 °C 1021.6 hPa WNW 11.3 km/h 17.7 km/h 89% 0 mm 0.00 W/m2
06:54 -6.7 °C -8.2 °C 1021.6 hPa West 11.3 km/h 17.7 km/h 89% 0 mm 0.00 W/m2
06:59 -7.1 °C -8.8 °C 1021.9 hPa West 8 km/h 16.1 km/h 88% 0 mm 0.00 W/m2
07:04 -7.2 °C -8.7 °C 1021.9 hPa West 11.3 km/h 14.5 km/h 89% 0 mm 0.00 W/m2
07:09 -7.3 °C -8.8 °C 1021.9 hPa West 11.3 km/h 14.5 km/h 89% 0 mm 0.00 W/m2
07:14 -7.3 °C -8.6 °C 1021.9 hPa WNW 8 km/h 14.5 km/h 90% 0 mm 0.00 W/m2
07:19 -7.6 °C -9.1 °C 1021.9 hPa West 8 km/h 12.9 km/h 89% 0 mm 0.00 W/m2
07:24 -8.2 °C -9.8 °C 1021.9 hPa WSW 8 km/h 11.3 km/h 88% 0 mm 0.00 W/m2
07:29 -8.6 °C -10.1 °C 1021.9 hPa West 9.7 km/h 11.3 km/h 89% 0 mm 0.00 W/m2
07:34 -8.8 °C -10.3 °C 1021.9 hPa WSW 8 km/h 11.3 km/h 89% 0 mm 0.00 W/m2
07:39 -8.8 °C -10.1 °C 1022.2 hPa West 11.3 km/h 12.9 km/h 90% 0 mm 0.00 W/m2
07:44 -8.4 °C -9.7 °C 1022.2 hPa WSW 9.7 km/h 12.9 km/h 91% 0 mm 0.00 W/m2
07:49 -8.2 °C -9.4 °C 1022.2 hPa WSW 6.4 km/h 12.9 km/h 91% 0 mm 0.00 W/m2
07:54 -8.2 °C -9.4 °C 1022.2 hPa WSW 11.3 km/h 14.5 km/h 91% 0 mm 5.00 W/m2
07:59 -7.7 °C -8.9 °C 1022.2 hPa West 6.4 km/h 14.5 km/h 91% 0 mm 9.00 W/m2
08:04 -7.7 °C -8.9 °C 1022.2 hPa West 8 km/h 14.5 km/h 91% 0 mm 12.00 W/m2
08:09 -7.7 °C -8.9 °C 1022.2 hPa WSW 4.8 km/h 12.9 km/h 91% 0 mm 14.00 W/m2
08:14 -7.9 °C -9.2 °C 1022.6 hPa West 6.4 km/h 12.9 km/h 90% 0 mm 18.00 W/m2
08:19 -8.1 °C -9.4 °C 1022.6 hPa WSW 6.4 km/h 11.3 km/h 90% 0 mm 21.00 W/m2
08:24 -8.3 °C -9.7 °C 1022.6 hPa WSW 6.4 km/h 11.3 km/h 90% 0 mm 25.00 W/m2
08:29 -8.6 °C -9.9 °C 1022.6 hPa WSW 4.8 km/h 9.7 km/h 90% 0 mm 26.00 W/m2
08:34 -8.7 °C -10.1 °C 1022.6 hPa WSW 4.8 km/h 9.7 km/h 90% 0 mm 30.00 W/m2
08:39 -8.7 °C -9.9 °C 1022.6 hPa West 6.4 km/h 9.7 km/h 91% 0 mm 49.00 W/m2
08:44 -8.4 °C -9.7 °C 1022.9 hPa West 8 km/h 11.3 km/h 91% 0 mm 76.00 W/m2
08:49 -8.3 °C -9.6 °C 1022.9 hPa West 9.7 km/h 12.9 km/h 91% 0 mm 100.00 W/m2
08:54 -8.3 °C -9.5 °C 1022.9 hPa West 12.9 km/h 16.1 km/h 91% 0 mm 116.00 W/m2
08:59 -8.1 °C -9.4 °C 1022.9 hPa West 9.7 km/h 16.1 km/h 90% 0 mm 135.00 W/m2
09:04 -8.1 °C -9.4 °C 1022.9 hPa West 9.7 km/h 14.5 km/h 90% 0 mm 153.00 W/m2
09:09 -8.1 °C -9.4 °C 1022.9 hPa West 9.7 km/h 12.9 km/h 90% 0 mm 160.00 W/m2
09:14 -7.8 °C -9.2 °C 1022.9 hPa West 8 km/h 12.9 km/h 90% 0 mm 162.00 W/m2
09:19 -7.7 °C -9.1 °C 1022.9 hPa West 12.9 km/h 12.9 km/h 90% 0 mm 176.00 W/m2
09:24 -7.6 °C -8.9 °C 1022.9 hPa West 6.4 km/h 14.5 km/h 90% 0 mm 213.00 W/m2
09:29 -7.3 °C -8.7 °C 1022.9 hPa WNW 9.7 km/h 14.5 km/h 90% 0 mm 244.00 W/m2
09:34 -7.3 °C -8.8 °C 1023.2 hPa West 11.3 km/h 12.9 km/h 89% 0 mm 262.00 W/m2
09:39 -7.3 °C -8.8 °C 1023.2 hPa West 9.7 km/h 14.5 km/h 89% 0 mm 278.00 W/m2
09:44 -7.3 °C -8.9 °C 1023.2 hPa West 9.7 km/h 14.5 km/h 88% 0 mm 297.00 W/m2
09:49 -7.2 °C -8.9 °C 1023.2 hPa West 8 km/h 12.9 km/h 88% 0 mm 315.00 W/m2
09:54 -7.1 °C -8.8 °C 1023.2 hPa West 9.7 km/h 12.9 km/h 88% 0 mm 325.00 W/m2
09:59 -7 °C -8.7 °C 1023.2 hPa WSW 8 km/h 11.3 km/h 88% 0 mm 306.00 W/m2
10:04 -6.9 °C -8.6 °C 1023.6 hPa WSW 11.3 km/h 12.9 km/h 88% 0 mm 285.00 W/m2
10:09 -6.9 °C -8.6 °C 1023.6 hPa West 9.7 km/h 12.9 km/h 88% 0 mm 297.00 W/m2
10:14 -6.7 °C -8.4 °C 1023.6 hPa WSW 11.3 km/h 12.9 km/h 88% 0 mm 334.00 W/m2
10:19 -6.6 °C -8.2 °C 1023.6 hPa West 11.3 km/h 14.5 km/h 88% 0 mm 346.00 W/m2
10:24 -6.3 °C -8 °C 1023.6 hPa West 11.3 km/h 14.5 km/h 88% 0 mm 346.00 W/m2
10:29 -6.2 °C -8 °C 1023.6 hPa West 11.3 km/h 14.5 km/h 87% 0 mm 346.00 W/m2
10:34 -6.1 °C -7.9 °C 1023.6 hPa WSW 11.3 km/h 14.5 km/h 87% 0 mm 341.00 W/m2
10:39 -5.8 °C -7.7 °C 1023.6 hPa WSW 11.3 km/h 14.5 km/h 87% 0 mm 308.00 W/m2
10:44 -5.7 °C -7.6 °C 1023.6 hPa West 11.3 km/h 16.1 km/h 87% 0 mm 295.00 W/m2
10:49 -5.7 °C -7.6 °C 1023.6 hPa West 14.5 km/h 17.7 km/h 86% 0 mm 383.00 W/m2
10:54 -5.6 °C -7.5 °C 1023.6 hPa West 11.3 km/h 20.9 km/h 86% 0 mm 369.00 W/m2
10:59 -5.3 °C -7.2 °C 1023.6 hPa West 12.9 km/h 22.5 km/h 87% 0 mm 392.00 W/m2
11:04 -5.2 °C -7.2 °C 1023.6 hPa WNW 16.1 km/h 22.5 km/h 86% 0 mm 387.00 W/m2
11:09 -5 °C -7 °C 1023.9 hPa WNW 16.1 km/h 24.1 km/h 86% 0 mm 408.00 W/m2
11:14 -4.9 °C -6.9 °C 1023.6 hPa WNW 12.9 km/h 24.1 km/h 86% 0 mm 448.00 W/m2
11:19 -4.8 °C -6.9 °C 1023.9 hPa West 11.3 km/h 19.3 km/h 85% 0 mm 503.00 W/m2
11:24 -4.6 °C -6.7 °C 1023.9 hPa West 9.7 km/h 19.3 km/h 85% 0 mm 547.00 W/m2
11:29 -4.4 °C -6.6 °C 1023.9 hPa West 9.7 km/h 19.3 km/h 85% 0 mm 559.00 W/m2
11:34 -4.3 °C -6.5 °C 1023.9 hPa West 11.3 km/h 16.1 km/h 85% 0 mm 568.00 W/m2
11:39 -4.4 °C -6.6 °C 1023.9 hPa West 17.7 km/h 17.7 km/h 85% 0 mm 578.00 W/m2
11:44 -4.3 °C -6.5 °C 1023.9 hPa West 11.3 km/h 17.7 km/h 85% 0 mm 589.00 W/m2
11:49 -4.2 °C -6.3 °C 1023.9 hPa WSW 11.3 km/h 17.7 km/h 85% 0 mm 599.00 W/m2
11:54 -4.1 °C -6.3 °C 1023.9 hPa West 11.3 km/h 17.7 km/h 84% 0 mm 612.00 W/m2
11:59 -3.9 °C -6.2 °C 1023.9 hPa West 9.7 km/h 17.7 km/h 84% 0 mm 617.00 W/m2
12:04 -3.8 °C -6.1 °C 1023.9 hPa West 9.7 km/h 12.9 km/h 84% 0 mm 628.00 W/m2
12:09 -3.7 °C -6 °C 1023.6 hPa West 11.3 km/h 12.9 km/h 84% 0 mm 633.00 W/m2
12:14 -3.6 °C -5.9 °C 1023.9 hPa West 8 km/h 12.9 km/h 84% 0 mm 640.00 W/m2
12:19 -3.4 °C -5.9 °C 1023.9 hPa WSW 12.9 km/h 12.9 km/h 83% 0 mm 652.00 W/m2
12:24 -3.4 °C -5.9 °C 1023.9 hPa WSW 14.5 km/h 16.1 km/h 83% 0 mm 661.00 W/m2
12:29 -3.3 °C -5.8 °C 1023.9 hPa West 8 km/h 17.7 km/h 83% 0 mm 668.00 W/m2
12:34 -3.2 °C -5.7 °C 1023.9 hPa West 8 km/h 17.7 km/h 83% 0 mm 673.00 W/m2
12:39 -3.1 °C -5.6 °C 1023.9 hPa West 12.9 km/h 12.9 km/h 83% 0 mm 684.00 W/m2
12:44 -3.1 °C -5.6 °C 1023.9 hPa WSW 14.5 km/h 16.1 km/h 83% 0 mm 687.00 W/m2
12:49 -2.9 °C -5.4 °C 1023.9 hPa West 16.1 km/h 17.7 km/h 83% 0 mm 691.00 W/m2
12:54 -2.8 °C -5.3 °C 1023.9 hPa West 12.9 km/h 17.7 km/h 83% 0 mm 700.00 W/m2
12:59 -2.7 °C -5.2 °C 1023.9 hPa West 11.3 km/h 17.7 km/h 83% 0 mm 701.00 W/m2
13:04 -2.6 °C -5.1 °C 1023.9 hPa West 11.3 km/h 16.1 km/h 83% 0 mm 703.00 W/m2
13:09 -2.3 °C -4.8 °C 1023.9 hPa West 8 km/h 16.1 km/h 83% 0 mm 710.00 W/m2
13:14 -2.2 °C -4.7 °C 1023.9 hPa West 12.9 km/h 16.1 km/h 83% 0 mm 705.00 W/m2
13:19 -2 °C -4.3 °C 1023.9 hPa WSW 14.5 km/h 16.1 km/h 84% 0 mm 721.00 W/m2
13:24 -2 °C -4.5 °C 1023.9 hPa West 14.5 km/h 17.7 km/h 83% 0 mm 717.00 W/m2
13:29 -1.9 °C -4.4 °C 1024.3 hPa West 12.9 km/h 19.3 km/h 83% 0 mm 722.00 W/m2
13:34 -1.9 °C -4.4 °C 1024.3 hPa WSW 14.5 km/h 19.3 km/h 83% 0 mm 726.00 W/m2
13:39 -1.8 °C -4.3 °C 1024.3 hPa West 16.1 km/h 17.7 km/h 83% 0 mm 719.00 W/m2
13:44 -1.7 °C -4.2 °C 1023.9 hPa WNW 19.3 km/h 22.5 km/h 83% 0 mm 726.00 W/m2
13:49 -1.7 °C -4.2 °C 1023.9 hPa West 14.5 km/h 22.5 km/h 83% 0 mm 728.00 W/m2
13:54 -1.7 °C -4.4 °C 1023.6 hPa West 24.1 km/h 24.1 km/h 82% 0 mm 729.00 W/m2
13:59 -1.7 °C -4.2 °C 1023.6 hPa West 19.3 km/h 24.1 km/h 83% 0 mm 735.00 W/m2
14:04 -1.6 °C -4.1 °C 1023.6 hPa West 19.3 km/h 27.4 km/h 83% 0 mm 686.00 W/m2
14:09 -1.6 °C -4.2 °C 1023.6 hPa West 16.1 km/h 27.4 km/h 82% 0 mm 515.00 W/m2
14:14 -1.5 °C -4.2 °C 1023.6 hPa West 19.3 km/h 24.1 km/h 82% 0 mm 759.00 W/m2
14:19 -1.3 °C -4 °C 1023.6 hPa WNW 16.1 km/h 22.5 km/h 82% 0 mm 731.00 W/m2
14:24 -1.1 °C -3.8 °C 1023.6 hPa West 14.5 km/h 22.5 km/h 82% 0 mm 726.00 W/m2
14:29 -1.1 °C -3.8 °C 1023.6 hPa West 12.9 km/h 19.3 km/h 82% 0 mm 728.00 W/m2
14:34 -1.1 °C -3.9 °C 1023.6 hPa WNW 14.5 km/h 20.9 km/h 81% 0 mm 729.00 W/m2
14:39 -1 °C -3.7 °C 1023.2 hPa West 14.5 km/h 20.9 km/h 82% 0 mm 705.00 W/m2
14:44 -1 °C -3.8 °C 1023.6 hPa West 12.9 km/h 17.7 km/h 81% 0 mm 636.00 W/m2
14:49 -0.9 °C -3.8 °C 1023.2 hPa West 14.5 km/h 17.7 km/h 81% 0 mm 698.00 W/m2
14:54 -0.8 °C -3.7 °C 1023.2 hPa West 12.9 km/h 17.7 km/h 81% 0 mm 731.00 W/m2
14:59 -0.7 °C -3.6 °C 1023.2 hPa West 11.3 km/h 17.7 km/h 81% 0 mm 717.00 W/m2
15:04 -0.6 °C -3.6 °C 1023.2 hPa West 14.5 km/h 17.7 km/h 80% 0 mm 700.00 W/m2
15:09 -0.7 °C -3.7 °C 1022.9 hPa West 9.7 km/h 17.7 km/h 80% 0 mm 701.00 W/m2
15:14 -0.6 °C -3.6 °C 1022.9 hPa West 12.9 km/h 16.1 km/h 80% 0 mm 601.00 W/m2
15:19 -0.5 °C -3.5 °C 1022.9 hPa WNW 12.9 km/h 16.1 km/h 80% 0 mm 650.00 W/m2
15:24 -0.4 °C -3.6 °C 1022.9 hPa WNW 14.5 km/h 16.1 km/h 79% 0 mm 722.00 W/m2
15:29 -0.3 °C -3.3 °C 1022.9 hPa West 14.5 km/h 17.7 km/h 80% 0 mm 580.00 W/m2
15:34 -0.3 °C -3.5 °C 1022.9 hPa West 11.3 km/h 17.7 km/h 79% 0 mm 705.00 W/m2
15:39 -0.2 °C -3.3 °C 1022.9 hPa West 11.3 km/h 16.1 km/h 80% 0 mm 682.00 W/m2
15:44 -0.3 °C -3.3 °C 1022.9 hPa West 11.3 km/h 16.1 km/h 80% 0 mm 721.00 W/m2
15:49 -0.2 °C -3.2 °C 1022.9 hPa West 9.7 km/h 16.1 km/h 80% 0 mm 638.00 W/m2
15:54 -0.1 °C -3.3 °C 1022.9 hPa WSW 14.5 km/h 16.1 km/h 79% 0 mm 659.00 W/m2
15:59 -0.2 °C -3.4 °C 1022.9 hPa WSW 11.3 km/h 17.7 km/h 79% 0 mm 548.00 W/m2
16:04 -0.1 °C -3.3 °C 1022.9 hPa WSW 14.5 km/h 17.7 km/h 79% 0 mm 475.00 W/m2
16:09 -0.1 °C -3.3 °C 1022.9 hPa West 11.3 km/h 16.1 km/h 79% 0 mm 459.00 W/m2
16:14 -0.1 °C -3.3 °C 1022.9 hPa West 8 km/h 14.5 km/h 79% 0 mm 587.00 W/m2
16:19 0.1 °C -3.2 °C 1022.9 hPa WSW 11.3 km/h 12.9 km/h 79% 0 mm 610.00 W/m2
16:24 0.2 °C -3.2 °C 1022.9 hPa WSW 9.7 km/h 12.9 km/h 78% 0 mm 559.00 W/m2
16:29 0.2 °C -3 °C 1022.9 hPa West 11.3 km/h 12.9 km/h 79% 0 mm 582.00 W/m2
16:34 0.2 °C -3 °C 1022.9 hPa WSW 11.3 km/h 14.5 km/h 79% 0 mm 575.00 W/m2
16:39 0.2 °C -3.2 °C 1022.9 hPa West 11.3 km/h 14.5 km/h 78% 0 mm 536.00 W/m2
16:44 0.1 °C -3.2 °C 1022.9 hPa West 9.7 km/h 12.9 km/h 79% 0 mm 374.00 W/m2
16:49 0.2 °C -3.1 °C 1022.9 hPa WSW 9.7 km/h 14.5 km/h 79% 0 mm 555.00 W/m2
16:54 0.4 °C -2.8 °C 1022.9 hPa West 9.7 km/h 14.5 km/h 79% 0 mm 589.00 W/m2
16:59 0.4 °C -3 °C 1022.9 hPa West 12.9 km/h 14.5 km/h 78% 0 mm 582.00 W/m2
17:04 0.4 °C -3 °C 1023.2 hPa West 12.9 km/h 14.5 km/h 78% 0 mm 534.00 W/m2
17:09 0.3 °C -3.1 °C 1022.9 hPa West 8 km/h 14.5 km/h 78% 0 mm 385.00 W/m2
17:14 0.2 °C -3.2 °C 1022.9 hPa West 9.7 km/h 14.5 km/h 78% 0 mm 425.00 W/m2
17:19 0.3 °C -3.1 °C 1022.9 hPa West 9.7 km/h 14.5 km/h 78% 0 mm 469.00 W/m2
17:24 0.3 °C -3.3 °C 1022.9 hPa West 8 km/h 14.5 km/h 77% 0 mm 457.00 W/m2
17:29 0.1 °C -3.3 °C 1022.9 hPa West 9.7 km/h 12.9 km/h 78% 0 mm 258.00 W/m2
17:34 -0.1 °C -3.5 °C 1023.2 hPa West 9.7 km/h 12.9 km/h 78% 0 mm 246.00 W/m2
17:39 -0.1 °C -3.3 °C 1022.9 hPa West 6.4 km/h 12.9 km/h 79% 0 mm 427.00 W/m2
17:44 0.2 °C -3.2 °C 1023.2 hPa West 12.9 km/h 12.9 km/h 78% 0 mm 413.00 W/m2
17:49 0.3 °C -3.3 °C 1022.9 hPa West 8 km/h 12.9 km/h 77% 0 mm 371.00 W/m2
17:54 0.3 °C -3.2 °C 1023.2 hPa WNW 8 km/h 11.3 km/h 77% 0 mm 299.00 W/m2
17:59 0.4 °C -3.3 °C 1023.2 hPa WNW 6.4 km/h 11.3 km/h 76% 0 mm 322.00 W/m2
18:04 0.4 °C -3.3 °C 1023.2 hPa West 4.8 km/h 11.3 km/h 76% 0 mm 308.00 W/m2
18:09 0.5 °C -3.2 °C 1022.9 hPa WNW 6.4 km/h 9.7 km/h 76% 0 mm 278.00 W/m2
18:14 0.4 °C -3.3 °C 1023.2 hPa WNW 8 km/h 9.7 km/h 76% 0 mm 209.00 W/m2
18:19 0.3 °C -3.4 °C 1022.9 hPa West 6.4 km/h 11.3 km/h 76% 0 mm 216.00 W/m2
18:24 0.3 °C -3.3 °C 1022.9 hPa West 6.4 km/h 11.3 km/h 77% 0 mm 181.00 W/m2
18:29 0.2 °C -3.2 °C 1022.9 hPa West 6.4 km/h 9.7 km/h 78% 0 mm 167.00 W/m2
18:34 0.2 °C -3.2 °C 1022.9 hPa West 4.8 km/h 9.7 km/h 78% 0 mm 167.00 W/m2
18:39 0.1 °C -3.3 °C 1022.9 hPa West 4.8 km/h 8 km/h 78% 0 mm 69.00 W/m2
18:44 -0.3 °C -3.5 °C 1022.9 hPa West 4.8 km/h 8 km/h 79% 0 mm 60.00 W/m2
18:49 -0.6 °C -3.6 °C 1022.9 hPa West 4.8 km/h 6.4 km/h 80% 0 mm 54.00 W/m2
18:54 -0.8 °C -3.6 °C 1022.9 hPa West 4.8 km/h 8 km/h 81% 0 mm 40.00 W/m2
18:59 -0.9 °C -3.8 °C 1022.6 hPa WSW 3.2 km/h 8 km/h 81% 0 mm 35.00 W/m2
19:04 -1.1 °C -3.9 °C 1022.9 hPa West 3.2 km/h 6.4 km/h 81% 0 mm 33.00 W/m2
19:09 -1.2 °C -3.8 °C 1022.9 hPa West 3.2 km/h 6.4 km/h 82% 0 mm 35.00 W/m2
19:14 -1.2 °C -3.9 °C 1022.9 hPa West 3.2 km/h 4.8 km/h 82% 0 mm 33.00 W/m2
19:19 -1.3 °C -3.9 °C 1022.9 hPa West 1.6 km/h 4.8 km/h 82% 0 mm 30.00 W/m2
19:24 -1.3 °C -3.9 °C 1022.9 hPa West 3.2 km/h 4.8 km/h 82% 0 mm 25.00 W/m2
19:29 -1.3 °C -3.8 °C 1022.9 hPa West 1.6 km/h 4.8 km/h 83% 0 mm 19.00 W/m2
19:34 -1.4 °C -4.1 °C 1022.9 hPa SW 3.2 km/h 4.8 km/h 82% 0 mm 16.00 W/m2
19:39 -1.6 °C -4.1 °C 1022.9 hPa Calm   4.8 km/h 83% 0 mm 12.00 W/m2
19:44 -1.6 °C -4.1 °C 1022.9 hPa Calm   4.8 km/h 83% 0 mm 9.00 W/m2
19:49 -1.6 °C -3.9 °C 1022.9 hPa Calm   1.6 km/h 84% 0 mm 5.00 W/m2
19:54 -1.7 °C -4.2 °C 1022.9 hPa SSW 3.2 km/h 3.2 km/h 83% 0 mm 0.00 W/m2
19:59 -1.9 °C -4.4 °C 1022.9 hPa SSW 3.2 km/h 3.2 km/h 83% 0 mm 0.00 W/m2
20:04 -2.1 °C -4.4 °C 1022.9 hPa SSW 3.2 km/h 4.8 km/h 84% 0 mm 0.00 W/m2
20:09 -2.1 °C -4.2 °C 1022.9 hPa South 3.2 km/h 4.8 km/h 85% 0 mm 0.00 W/m2
20:14 -2 °C -4.2 °C 1022.9 hPa South 3.2 km/h 4.8 km/h 85% 0 mm 0.00 W/m2
20:19 -1.9 °C -4.1 °C 1022.9 hPa South 3.2 km/h 6.4 km/h 85% 0 mm 0.00 W/m2
20:24 -1.9 °C -4.1 °C 1022.9 hPa South 4.8 km/h 6.4 km/h 85% 0 mm 0.00 W/m2
20:29 -1.8 °C -4 °C 1022.9 hPa South 4.8 km/h 6.4 km/h 85% 0 mm 0.00 W/m2
20:34 -1.8 °C -3.9 °C 1022.9 hPa South 4.8 km/h 6.4 km/h 85% 0 mm 0.00 W/m2
20:39 -1.7 °C -3.8 °C 1022.9 hPa South 3.2 km/h 6.4 km/h 86% 0 mm 0.00 W/m2
20:44 -1.7 °C -3.7 °C 1022.9 hPa South 3.2 km/h 4.8 km/h 86% 0 mm 0.00 W/m2
20:49 -1.7 °C -3.8 °C 1022.9 hPa South 4.8 km/h 4.8 km/h 85% 0 mm 0.00 W/m2
20:54 -1.7 °C -3.8 °C 1022.9 hPa South 3.2 km/h 4.8 km/h 85% 0 mm 0.00 W/m2
20:59 -1.6 °C -3.8 °C 1022.9 hPa South 1.6 km/h 4.8 km/h 85% 0 mm 0.00 W/m2
21:04 -1.7 °C -3.8 °C 1022.9 hPa South 3.2 km/h 4.8 km/h 85% 0 mm 0.00 W/m2
21:09 -1.7 °C -3.9 °C 1022.9 hPa South 4.8 km/h 4.8 km/h 85% 0 mm 0.00 W/m2
21:14 -1.7 °C -3.9 °C 1022.9 hPa South 3.2 km/h 4.8 km/h 85% 0 mm 0.00 W/m2
21:19 -1.7 °C -3.9 °C 1022.9 hPa South 1.6 km/h 4.8 km/h 85% 0 mm 0.00 W/m2
21:24 -1.7 °C -3.9 °C 1022.9 hPa South 3.2 km/h 4.8 km/h 85% 0 mm 0.00 W/m2
21:29 -1.8 °C -4 °C 1022.9 hPa South 3.2 km/h 4.8 km/h 85% 0 mm 0.00 W/m2
21:34 -1.9 °C -4.1 °C 1022.9 hPa South 4.8 km/h 4.8 km/h 85% 0 mm 0.00 W/m2
21:39 -2.1 °C -4.3 °C 1022.9 hPa East 4.8 km/h 8 km/h 85% 0 mm 0.00 W/m2
21:44 -2.3 °C -4.4 °C 1022.9 hPa East 8 km/h 9.7 km/h 85% 0 mm 0.00 W/m2
21:49 -2.4 °C -4.4 °C 1022.9 hPa East 8 km/h 9.7 km/h 86% 0 mm 0.00 W/m2
21:54 -2.6 °C -4.6 °C 1022.9 hPa ESE 4.8 km/h 9.7 km/h 86% 0 mm 0.00 W/m2
21:59 -2.6 °C -4.6 °C 1023.2 hPa ESE 6.4 km/h 9.7 km/h 86% 0 mm 0.00 W/m2
22:04 -2.7 °C -4.6 °C 1022.9 hPa ESE 4.8 km/h 8 km/h 87% 0 mm 0.00 W/m2
22:09 -2.8 °C -4.7 °C 1023.2 hPa ESE 3.2 km/h 8 km/h 87% 0 mm 0.00 W/m2
22:14 -2.9 °C -4.8 °C 1023.2 hPa ESE 3.2 km/h 8 km/h 87% 0 mm 0.00 W/m2
22:19 -2.9 °C -4.8 °C 1023.2 hPa ESE 6.4 km/h 6.4 km/h 87% 0 mm 0.00 W/m2
22:24 -2.9 °C -4.7 °C 1023.2 hPa ESE 3.2 km/h 6.4 km/h 88% 0 mm 0.00 W/m2
22:29 -2.9 °C -4.7 °C 1023.2 hPa ESE 4.8 km/h 6.4 km/h 88% 0 mm 0.00 W/m2
22:34 -2.9 °C -4.7 °C 1023.2 hPa ESE 4.8 km/h 6.4 km/h 88% 0 mm 0.00 W/m2
22:39 -3.1 °C -4.8 °C 1023.2 hPa ESE 8 km/h 8 km/h 88% 0 mm 0.00 W/m2
22:44 -3.2 °C -4.9 °C 1023.2 hPa ESE 4.8 km/h 8 km/h 88% 0 mm 0.00 W/m2
22:49 -3.2 °C -4.9 °C 1023.2 hPa ESE 4.8 km/h 8 km/h 88% 0 mm 0.00 W/m2
22:54 -3.2 °C -4.9 °C 1023.2 hPa ESE 4.8 km/h 6.4 km/h 88% 0 mm 0.00 W/m2
22:59 -3.2 °C -4.9 °C 1023.2 hPa ESE 4.8 km/h 6.4 km/h 88% 0 mm 0.00 W/m2
23:04 -3.3 °C -5 °C 1023.2 hPa ESE 4.8 km/h 6.4 km/h 88% 0 mm 0.00 W/m2
23:09 -3.4 °C -5.1 °C 1023.2 hPa ESE 4.8 km/h 6.4 km/h 88% 0 mm 0.00 W/m2
23:14 -3.4 °C -5.2 °C 1023.2 hPa SE 4.8 km/h 6.4 km/h 88% 0 mm 0.00 W/m2
23:19 -3.4 °C -5 °C 1023.2 hPa SE 4.8 km/h 6.4 km/h 89% 0 mm 0.00 W/m2
23:24 -3.4 °C -5 °C 1023.2 hPa SE 6.4 km/h 6.4 km/h 89% 0 mm 0.00 W/m2
23:29 -3.4 °C -4.9 °C 1023.2 hPa SE 4.8 km/h 6.4 km/h 89% 0 mm 0.00 W/m2
23:34 -3.3 °C -4.9 °C 1023.2 hPa SE 4.8 km/h 6.4 km/h 89% 0 mm 0.00 W/m2
23:39 -3.3 °C -4.8 °C 1023.2 hPa SE 3.2 km/h 6.4 km/h 89% 0 mm 0.00 W/m2
23:44 -3.3 °C -5.1 °C 1023.2 hPa SE 3.2 km/h 6.4 km/h 88% 0 mm 0.00 W/m2
23:49 -3.4 °C -5.1 °C 1023.2 hPa SE 4.8 km/h 4.8 km/h 88% 0 mm 0.00 W/m2
23:54 -3.4 °C -5.2 °C 1022.9 hPa SE 6.4 km/h 6.4 km/h 88% 0 mm 0.00 W/m2
23:59 -3.4 °C -4.9 °C 1023.2 hPa SE 4.8 km/h 6.4 km/h 89% 0 mm 0.00 W/m2
Bismarck, North Dakota, USA
Compliments of Weather Underground - 4 mb